sensor_id;sensor_type;location;lat;lon;timestamp;P1;durP1;ratioP1;P2;durP2;ratioP2
8337;SDS011;4206;48.634;9.516;2023-02-17T05:31:25;4.07;;;1.93;;
8337;SDS011;4206;48.634;9.516;2023-02-17T05:33:53;8.60;;;1.50;;
8337;SDS011;4206;48.634;9.516;2023-02-17T05:36:20;6.00;;;1.60;;
8337;SDS011;4206;48.634;9.516;2023-02-17T05:38:47;3.23;;;1.20;;
8337;SDS011;4206;48.634;9.516;2023-02-17T05:41:15;9.07;;;1.80;;
8337;SDS011;4206;48.634;9.516;2023-02-17T05:43:42;1.67;;;1.57;;
8337;SDS011;4206;48.634;9.516;2023-02-17T05:46:09;3.40;;;1.53;;
8337;SDS011;4206;48.634;9.516;2023-02-17T05:48:36;4.30;;;1.90;;
8337;SDS011;4206;48.634;9.516;2023-02-17T05:51:03;2.10;;;1.43;;
8337;SDS011;4206;48.634;9.516;2023-02-17T05:53:30;2.43;;;1.33;;
8337;SDS011;4206;48.634;9.516;2023-02-17T05:55:57;2.50;;;1.90;;
8337;SDS011;4206;48.634;9.516;2023-02-17T05:58:24;2.47;;;1.60;;
8337;SDS011;4206;48.634;9.516;2023-02-17T06:00:52;3.07;;;1.77;;
8337;SDS011;4206;48.634;9.516;2023-02-17T06:03:19;3.50;;;1.57;;
8337;SDS011;4206;48.634;9.516;2023-02-17T06:05:46;4.87;;;2.00;;
8337;SDS011;4206;48.634;9.516;2023-02-17T06:08:13;3.27;;;1.70;;
8337;SDS011;4206;48.634;9.516;2023-02-17T06:10:40;5.73;;;1.87;;
8337;SDS011;4206;48.634;9.516;2023-02-17T06:13:08;1.50;;;1.10;;
8337;SDS011;4206;48.634;9.516;2023-02-17T06:15:34;4.73;;;1.40;;
8337;SDS011;4206;48.634;9.516;2023-02-17T06:18:02;2.60;;;1.23;;
8337;SDS011;4206;48.634;9.516;2023-02-17T06:20:29;8.77;;;1.30;;
8337;SDS011;4206;48.634;9.516;2023-02-17T06:22:56;2.47;;;1.20;;
8337;SDS011;4206;48.634;9.516;2023-02-17T06:25:23;7.57;;;1.50;;
8337;SDS011;4206;48.634;9.516;2023-02-17T06:27:50;4.43;;;1.53;;
8337;SDS011;4206;48.634;9.516;2023-02-17T06:30:18;2.20;;;1.50;;
8337;SDS011;4206;48.634;9.516;2023-02-17T06:32:46;4.50;;;1.10;;
8337;SDS011;4206;48.634;9.516;2023-02-17T06:35:13;8.43;;;1.43;;
8337;SDS011;4206;48.634;9.516;2023-02-17T06:37:40;2.00;;;1.17;;
8337;SDS011;4206;48.634;9.516;2023-02-17T06:40:07;3.70;;;1.20;;
8337;SDS011;4206;48.634;9.516;2023-02-17T06:42:35;4.23;;;1.30;;
8337;SDS011;4206;48.634;9.516;2023-02-17T06:45:02;3.07;;;1.57;;
8337;SDS011;4206;48.634;9.516;2023-02-17T06:47:31;3.73;;;1.30;;
8337;SDS011;4206;48.634;9.516;2023-02-17T06:49:59;5.67;;;1.47;;
8337;SDS011;4206;48.634;9.516;2023-02-17T06:52:26;2.80;;;1.20;;
8337;SDS011;4206;48.634;9.516;2023-02-17T06:54:54;3.40;;;1.67;;
8337;SDS011;4206;48.634;9.516;2023-02-17T06:57:20;3.90;;;2.73;;
8337;SDS011;4206;48.634;9.516;2023-02-17T06:59:47;3.90;;;2.00;;
8337;SDS011;4206;48.634;9.516;2023-02-17T07:02:14;3.53;;;2.43;;
8337;SDS011;4206;48.634;9.516;2023-02-17T07:04:42;2.93;;;1.63;;
8337;SDS011;4206;48.634;9.516;2023-02-17T07:07:09;9.13;;;3.00;;
8337;SDS011;4206;48.634;9.516;2023-02-17T07:09:37;12.23;;;3.60;;
8337;SDS011;4206;48.634;9.516;2023-02-17T07:12:04;5.63;;;2.40;;
8337;SDS011;4206;48.634;9.516;2023-02-17T07:14:32;6.60;;;3.67;;
8337;SDS011;4206;48.634;9.516;2023-02-17T07:17:00;17.47;;;8.00;;
8337;SDS011;4206;48.634;9.516;2023-02-17T07:19:27;2.50;;;1.77;;
8337;SDS011;4206;48.634;9.516;2023-02-17T07:21:54;4.70;;;2.23;;
8337;SDS011;4206;48.634;9.516;2023-02-17T07:24:21;2.67;;;1.60;;
8337;SDS011;4206;48.634;9.516;2023-02-17T07:26:48;4.30;;;1.60;;
8337;SDS011;4206;48.634;9.516;2023-02-17T07:29:15;3.63;;;1.53;;
8337;SDS011;4206;48.634;9.516;2023-02-17T07:31:42;8.00;;;1.63;;
8337;SDS011;4206;48.634;9.516;2023-02-17T07:34:09;5.53;;;1.30;;
8337;SDS011;4206;48.634;9.516;2023-02-17T07:36:35;2.77;;;1.60;;
8337;SDS011;4206;48.634;9.516;2023-02-17T07:39:02;2.40;;;1.27;;
8337;SDS011;4206;48.634;9.516;2023-02-17T07:41:29;2.77;;;1.70;;
8337;SDS011;4206;48.634;9.516;2023-02-17T07:43:58;3.70;;;1.17;;
8337;SDS011;4206;48.634;9.516;2023-02-17T07:46:25;2.50;;;1.83;;
8337;SDS011;4206;48.634;9.516;2023-02-17T07:48:52;2.63;;;1.37;;
8337;SDS011;4206;48.634;9.516;2023-02-17T07:51:21;2.10;;;1.40;;
8337;SDS011;4206;48.634;9.516;2023-02-17T07:53:49;3.77;;;1.40;;
8337;SDS011;4206;48.634;9.516;2023-02-17T07:56:17;5.77;;;2.73;;
8337;SDS011;4206;48.634;9.516;2023-02-17T07:58:46;5.70;;;3.83;;
8337;SDS011;4206;48.634;9.516;2023-02-17T08:01:18;2.73;;;1.20;;
8337;SDS011;4206;48.634;9.516;2023-02-17T08:03:48;3.67;;;1.67;;
8337;SDS011;4206;48.634;9.516;2023-02-17T08:06:19;3.03;;;1.53;;
8337;SDS011;4206;48.634;9.516;2023-02-17T08:08:50;2.50;;;1.50;;
8337;SDS011;4206;48.634;9.516;2023-02-17T08:11:36;5.03;;;1.23;;
8337;SDS011;4206;48.634;9.516;2023-02-17T08:14:22;8.17;;;2.40;;
8337;SDS011;4206;48.634;9.516;2023-02-17T08:16:50;5.43;;;1.90;;
8337;SDS011;4206;48.634;9.516;2023-02-17T08:19:17;12.27;;;2.60;;
8337;SDS011;4206;48.634;9.516;2023-02-17T08:21:44;6.37;;;1.90;;
8337;SDS011;4206;48.634;9.516;2023-02-17T08:24:11;6.00;;;1.53;;
8337;SDS011;4206;48.634;9.516;2023-02-17T08:26:38;2.50;;;1.23;;
8337;SDS011;4206;48.634;9.516;2023-02-17T08:29:05;3.50;;;1.17;;
8337;SDS011;4206;48.634;9.516;2023-02-17T08:31:33;4.97;;;2.13;;
8337;SDS011;4206;48.634;9.516;2023-02-17T08:34:03;5.23;;;1.73;;
8337;SDS011;4206;48.634;9.516;2023-02-17T08:36:32;1.80;;;1.30;;
8337;SDS011;4206;48.634;9.516;2023-02-17T08:39:08;3.33;;;1.30;;
8337;SDS011;4206;48.634;9.516;2023-02-17T08:41:38;5.27;;;1.33;;
8337;SDS011;4206;48.634;9.516;2023-02-17T08:44:08;2.93;;;1.43;;
8337;SDS011;4206;48.634;9.516;2023-02-17T08:46:37;5.47;;;1.87;;
8337;SDS011;4206;48.634;9.516;2023-02-17T08:49:04;2.97;;;1.63;;
8337;SDS011;4206;48.634;9.516;2023-02-17T08:51:32;2.87;;;1.77;;
8337;SDS011;4206;48.634;9.516;2023-02-17T08:54:00;2.50;;;1.70;;
8337;SDS011;4206;48.634;9.516;2023-02-17T08:56:29;5.33;;;2.03;;
8337;SDS011;4206;48.634;9.516;2023-02-17T08:58:56;5.03;;;1.17;;
8337;SDS011;4206;48.634;9.516;2023-02-17T09:01:23;2.70;;;1.47;;
8337;SDS011;4206;48.634;9.516;2023-02-17T09:03:51;4.40;;;1.33;;
8337;SDS011;4206;48.634;9.516;2023-02-17T09:06:19;6.83;;;1.43;;
8337;SDS011;4206;48.634;9.516;2023-02-17T09:08:46;5.80;;;1.40;;
8337;SDS011;4206;48.634;9.516;2023-02-17T09:11:14;4.07;;;1.70;;
8337;SDS011;4206;48.634;9.516;2023-02-17T09:13:42;6.20;;;1.40;;
8337;SDS011;4206;48.634;9.516;2023-02-17T09:16:10;6.50;;;1.70;;
8337;SDS011;4206;48.634;9.516;2023-02-17T09:18:37;5.50;;;1.60;;
8337;SDS011;4206;48.634;9.516;2023-02-17T09:21:07;4.70;;;1.60;;
8337;SDS011;4206;48.634;9.516;2023-02-17T09:23:36;3.53;;;1.70;;
8337;SDS011;4206;48.634;9.516;2023-02-17T09:26:04;5.53;;;1.57;;
8337;SDS011;4206;48.634;9.516;2023-02-17T09:28:33;1.90;;;1.30;;
8337;SDS011;4206;48.634;9.516;2023-02-17T09:33:43;2.23;;;1.40;;
8337;SDS011;4206;48.634;9.516;2023-02-17T09:36:13;3.63;;;1.40;;
8337;SDS011;4206;48.634;9.516;2023-02-17T09:38:42;1.93;;;1.00;;
8337;SDS011;4206;48.634;9.516;2023-02-17T09:41:17;3.83;;;1.67;;
8337;SDS011;4206;48.634;9.516;2023-02-17T09:44:11;2.20;;;1.30;;
8337;SDS011;4206;48.634;9.516;2023-02-17T09:46:44;4.50;;;1.30;;
8337;SDS011;4206;48.634;9.516;2023-02-17T09:49:30;3.53;;;1.30;;
8337;SDS011;4206;48.634;9.516;2023-02-17T09:52:10;5.73;;;1.00;;
8337;SDS011;4206;48.634;9.516;2023-02-17T09:54:48;1.43;;;1.33;;
8337;SDS011;4206;48.634;9.516;2023-02-17T10:00:31;1.73;;;1.10;;
8337;SDS011;4206;48.634;9.516;2023-02-17T10:03:04;4.27;;;1.77;;
8337;SDS011;4206;48.634;9.516;2023-02-17T10:05:54;4.30;;;1.20;;
8337;SDS011;4206;48.634;9.516;2023-02-17T10:11:32;1.93;;;1.27;;
8337;SDS011;4206;48.634;9.516;2023-02-17T10:17:25;2.23;;;1.30;;
8337;SDS011;4206;48.634;9.516;2023-02-17T10:20:15;2.10;;;1.00;;
8337;SDS011;4206;48.634;9.516;2023-02-17T10:22:54;3.20;;;1.43;;
8337;SDS011;4206;48.634;9.516;2023-02-17T10:31:39;4.10;;;1.13;;
8337;SDS011;4206;48.634;9.516;2023-02-17T10:37:02;2.13;;;1.20;;
8337;SDS011;4206;48.634;9.516;2023-02-17T10:39:50;3.00;;;1.20;;
8337;SDS011;4206;48.634;9.516;2023-02-17T10:42:29;1.40;;;1.13;;
8337;SDS011;4206;48.634;9.516;2023-02-17T10:45:05;1.53;;;1.10;;
8337;SDS011;4206;48.634;9.516;2023-02-17T10:47:38;1.50;;;0.90;;
8337;SDS011;4206;48.634;9.516;2023-02-17T10:50:12;2.80;;;1.33;;
8337;SDS011;4206;48.634;9.516;2023-02-17T10:52:44;5.50;;;2.63;;
8337;SDS011;4206;48.634;9.516;2023-02-17T10:57:51;3.10;;;1.23;;
8337;SDS011;4206;48.634;9.516;2023-02-17T11:00:23;2.00;;;0.87;;
8337;SDS011;4206;48.634;9.516;2023-02-17T11:02:50;3.40;;;1.20;;
8337;SDS011;4206;48.634;9.516;2023-02-17T11:05:25;3.23;;;1.00;;
8337;SDS011;4206;48.634;9.516;2023-02-17T11:07:59;6.70;;;1.30;;
8337;SDS011;4206;48.634;9.516;2023-02-17T11:11:23;2.90;;;1.00;;
8337;SDS011;4206;48.634;9.516;2023-02-17T11:14:15;1.50;;;0.83;;
8337;SDS011;4206;48.634;9.516;2023-02-17T11:16:51;1.70;;;0.73;;
8337;SDS011;4206;48.634;9.516;2023-02-17T11:19:28;2.87;;;0.60;;
8337;SDS011;4206;48.634;9.516;2023-02-17T11:22:01;1.30;;;0.70;;
8337;SDS011;4206;48.634;9.516;2023-02-17T11:24:30;1.40;;;0.63;;
8337;SDS011;4206;48.634;9.516;2023-02-17T11:29:27;1.47;;;0.63;;
8337;SDS011;4206;48.634;9.516;2023-02-17T11:34:35;1.43;;;0.80;;
8337;SDS011;4206;48.634;9.516;2023-02-17T11:39:40;1.97;;;0.70;;
8337;SDS011;4206;48.634;9.516;2023-02-17T11:42:15;2.70;;;0.90;;
8337;SDS011;4206;48.634;9.516;2023-02-17T11:44:42;1.63;;;0.60;;
8337;SDS011;4206;48.634;9.516;2023-02-17T11:47:16;1.83;;;0.83;;
8337;SDS011;4206;48.634;9.516;2023-02-17T11:50:02;1.73;;;0.60;;
8337;SDS011;4206;48.634;9.516;2023-02-17T11:52:47;1.00;;;0.70;;
8337;SDS011;4206;48.634;9.516;2023-02-17T12:16:50;4.00;;;0.50;;
8337;SDS011;4206;48.634;9.516;2023-02-17T12:35:52;2.10;;;0.67;;
8337;SDS011;4206;48.634;9.516;2023-02-17T12:38:31;1.50;;;0.77;;
8337;SDS011;4206;48.634;9.516;2023-02-17T12:44:04;1.73;;;0.70;;
8337;SDS011;4206;48.634;9.516;2023-02-17T12:46:39;4.03;;;1.03;;
8337;SDS011;4206;48.634;9.516;2023-02-17T12:49:13;3.23;;;0.93;;
8337;SDS011;4206;48.634;9.516;2023-02-17T12:57:26;1.70;;;0.80;;
8337;SDS011;4206;48.634;9.516;2023-02-17T13:00:00;0.83;;;0.60;;
8337;SDS011;4206;48.634;9.516;2023-02-17T13:02:36;2.53;;;0.67;;
8337;SDS011;4206;48.634;9.516;2023-02-17T13:05:03;2.33;;;0.70;;
8337;SDS011;4206;48.634;9.516;2023-02-17T13:07:45;1.83;;;1.10;;
8337;SDS011;4206;48.634;9.516;2023-02-17T13:12:56;1.60;;;0.63;;
8337;SDS011;4206;48.634;9.516;2023-02-17T13:15:33;0.80;;;0.40;;
8337;SDS011;4206;48.634;9.516;2023-02-17T13:18:04;1.57;;;0.63;;
8337;SDS011;4206;48.634;9.516;2023-02-17T13:26:26;3.97;;;1.40;;
8337;SDS011;4206;48.634;9.516;2023-02-17T13:31:48;1.13;;;0.77;;
8337;SDS011;4206;48.634;9.516;2023-02-17T13:37:17;2.10;;;0.90;;
8337;SDS011;4206;48.634;9.516;2023-02-17T13:42:42;3.40;;;0.73;;
8337;SDS011;4206;48.634;9.516;2023-02-17T13:47:40;2.60;;;0.80;;
8337;SDS011;4206;48.634;9.516;2023-02-17T13:53:22;1.00;;;0.60;;
8337;SDS011;4206;48.634;9.516;2023-02-17T13:55:50;3.07;;;0.70;;
8337;SDS011;4206;48.634;9.516;2023-02-17T13:58:24;1.10;;;0.57;;
8337;SDS011;4206;48.634;9.516;2023-02-17T14:00:57;1.20;;;0.70;;
8337;SDS011;4206;48.634;9.516;2023-02-17T14:03:28;3.03;;;0.67;;
8337;SDS011;4206;48.634;9.516;2023-02-17T14:06:06;2.00;;;0.90;;
8337;SDS011;4206;48.634;9.516;2023-02-17T14:08:38;4.33;;;2.00;;
8337;SDS011;4206;48.634;9.516;2023-02-17T14:11:14;0.60;;;0.50;;
8337;SDS011;4206;48.634;9.516;2023-02-17T14:13:45;1.00;;;0.73;;
8337;SDS011;4206;48.634;9.516;2023-02-17T14:16:32;1.10;;;0.60;;
8337;SDS011;4206;48.634;9.516;2023-02-17T14:19:07;1.10;;;0.67;;
8337;SDS011;4206;48.634;9.516;2023-02-17T14:21:38;0.50;;;0.40;;
8337;SDS011;4206;48.634;9.516;2023-02-17T14:24:30;2.40;;;0.73;;
8337;SDS011;4206;48.634;9.516;2023-02-17T14:26:59;2.20;;;0.43;;
8337;SDS011;4206;48.634;9.516;2023-02-17T14:29:36;2.30;;;0.50;;
8337;SDS011;4206;48.634;9.516;2023-02-17T14:32:24;0.60;;;0.50;;
8337;SDS011;4206;48.634;9.516;2023-02-17T14:37:38;1.30;;;0.30;;
8337;SDS011;4206;48.634;9.516;2023-02-17T14:40:13;1.33;;;0.50;;
8337;SDS011;4206;48.634;9.516;2023-02-17T14:42:40;1.30;;;0.60;;
8337;SDS011;4206;48.634;9.516;2023-02-17T14:45:07;2.03;;;0.77;;
8337;SDS011;4206;48.634;9.516;2023-02-17T14:47:34;1.33;;;0.60;;
8337;SDS011;4206;48.634;9.516;2023-02-17T14:50:01;3.57;;;0.50;;
8337;SDS011;4206;48.634;9.516;2023-02-17T14:52:27;1.50;;;0.57;;
8337;SDS011;4206;48.634;9.516;2023-02-17T14:54:57;1.90;;;0.73;;
8337;SDS011;4206;48.634;9.516;2023-02-17T14:57:25;1.63;;;0.93;;
8337;SDS011;4206;48.634;9.516;2023-02-17T14:59:52;1.80;;;0.67;;
8337;SDS011;4206;48.634;9.516;2023-02-17T15:02:22;2.60;;;0.60;;
8337;SDS011;4206;48.634;9.516;2023-02-17T15:04:49;1.57;;;0.60;;
8337;SDS011;4206;48.634;9.516;2023-02-17T15:07:17;2.00;;;0.40;;
8337;SDS011;4206;48.634;9.516;2023-02-17T15:09:44;2.27;;;0.50;;
8337;SDS011;4206;48.634;9.516;2023-02-17T15:12:13;1.90;;;0.60;;
8337;SDS011;4206;48.634;9.516;2023-02-17T15:14:42;1.37;;;0.50;;
8337;SDS011;4206;48.634;9.516;2023-02-17T15:17:09;1.10;;;0.60;;
8337;SDS011;4206;48.634;9.516;2023-02-17T15:19:36;1.67;;;0.60;;
8337;SDS011;4206;48.634;9.516;2023-02-17T15:22:03;2.40;;;0.43;;
8337;SDS011;4206;48.634;9.516;2023-02-17T15:24:31;0.83;;;0.53;;
8337;SDS011;4206;48.634;9.516;2023-02-17T15:27:00;2.70;;;0.50;;
8337;SDS011;4206;48.634;9.516;2023-02-17T15:29:28;1.13;;;0.60;;
8337;SDS011;4206;48.634;9.516;2023-02-17T15:31:55;1.63;;;0.60;;
8337;SDS011;4206;48.634;9.516;2023-02-17T15:34:28;1.67;;;0.50;;
8337;SDS011;4206;48.634;9.516;2023-02-17T15:36:57;1.00;;;0.70;;
8337;SDS011;4206;48.634;9.516;2023-02-17T15:39:25;2.73;;;0.80;;
8337;SDS011;4206;48.634;9.516;2023-02-17T15:41:52;4.43;;;0.50;;
8337;SDS011;4206;48.634;9.516;2023-02-17T15:44:22;0.90;;;0.60;;
8337;SDS011;4206;48.634;9.516;2023-02-17T15:46:51;2.63;;;0.60;;
8337;SDS011;4206;48.634;9.516;2023-02-17T15:49:20;3.90;;;0.87;;
8337;SDS011;4206;48.634;9.516;2023-02-17T15:51:47;2.10;;;1.80;;
8337;SDS011;4206;48.634;9.516;2023-02-17T15:54:14;0.80;;;0.43;;
8337;SDS011;4206;48.634;9.516;2023-02-17T15:56:45;1.13;;;0.50;;
8337;SDS011;4206;48.634;9.516;2023-02-17T15:59:15;1.33;;;0.50;;
8337;SDS011;4206;48.634;9.516;2023-02-17T16:01:47;2.83;;;0.60;;
8337;SDS011;4206;48.634;9.516;2023-02-17T16:04:16;3.10;;;1.10;;
8337;SDS011;4206;48.634;9.516;2023-02-17T16:06:43;1.30;;;0.90;;
8337;SDS011;4206;48.634;9.516;2023-02-17T16:09:10;1.50;;;0.77;;
8337;SDS011;4206;48.634;9.516;2023-02-17T16:11:58;3.27;;;1.30;;
8337;SDS011;4206;48.634;9.516;2023-02-17T16:14:44;5.00;;;1.73;;
8337;SDS011;4206;48.634;9.516;2023-02-17T16:17:12;1.33;;;0.80;;
8337;SDS011;4206;48.634;9.516;2023-02-17T16:19:41;1.60;;;0.50;;
8337;SDS011;4206;48.634;9.516;2023-02-17T16:22:08;0.60;;;0.53;;
8337;SDS011;4206;48.634;9.516;2023-02-17T16:24:35;1.20;;;0.73;;
8337;SDS011;4206;48.634;9.516;2023-02-17T16:27:03;1.10;;;0.50;;
8337;SDS011;4206;48.634;9.516;2023-02-17T16:29:35;0.93;;;0.60;;
8337;SDS011;4206;48.634;9.516;2023-02-17T16:32:02;1.10;;;0.83;;
8337;SDS011;4206;48.634;9.516;2023-02-17T16:34:29;0.87;;;0.50;;
8337;SDS011;4206;48.634;9.516;2023-02-17T16:37:00;0.97;;;0.60;;
8337;SDS011;4206;48.634;9.516;2023-02-17T16:39:35;1.33;;;0.63;;
8337;SDS011;4206;48.634;9.516;2023-02-17T16:42:04;1.00;;;0.50;;
8337;SDS011;4206;48.634;9.516;2023-02-17T16:44:31;1.13;;;0.30;;
8337;SDS011;4206;48.634;9.516;2023-02-17T16:46:58;0.80;;;0.40;;
8337;SDS011;4206;48.634;9.516;2023-02-17T16:49:31;0.70;;;0.30;;
8337;SDS011;4206;48.634;9.516;2023-02-17T16:52:03;2.30;;;0.60;;
8337;SDS011;4206;48.634;9.516;2023-02-17T16:54:40;0.70;;;0.40;;
8337;SDS011;4206;48.634;9.516;2023-02-17T16:57:09;1.10;;;0.30;;
8337;SDS011;4206;48.634;9.516;2023-02-17T16:59:42;1.70;;;0.80;;
8337;SDS011;4206;48.634;9.516;2023-02-17T17:02:10;0.60;;;0.40;;
8337;SDS011;4206;48.634;9.516;2023-02-17T17:04:37;1.10;;;0.50;;
8337;SDS011;4206;48.634;9.516;2023-02-17T17:07:04;1.90;;;0.57;;
8337;SDS011;4206;48.634;9.516;2023-02-17T17:09:31;1.27;;;0.33;;
8337;SDS011;4206;48.634;9.516;2023-02-17T17:11:58;0.60;;;0.40;;
8337;SDS011;4206;48.634;9.516;2023-02-17T17:14:24;2.70;;;0.40;;
8337;SDS011;4206;48.634;9.516;2023-02-17T17:16:55;1.13;;;0.30;;
8337;SDS011;4206;48.634;9.516;2023-02-17T17:19:25;0.67;;;0.50;;
8337;SDS011;4206;48.634;9.516;2023-02-17T17:21:52;1.70;;;0.40;;
8337;SDS011;4206;48.634;9.516;2023-02-17T17:24:19;0.73;;;0.40;;
8337;SDS011;4206;48.634;9.516;2023-02-17T17:26:47;2.00;;;0.60;;
8337;SDS011;4206;48.634;9.516;2023-02-17T17:29:16;1.90;;;0.60;;
8337;SDS011;4206;48.634;9.516;2023-02-17T17:31:44;1.20;;;0.70;;
8337;SDS011;4206;48.634;9.516;2023-02-17T17:34:11;2.17;;;1.60;;
8337;SDS011;4206;48.634;9.516;2023-02-17T17:36:39;4.40;;;1.00;;
8337;SDS011;4206;48.634;9.516;2023-02-17T17:39:16;0.90;;;0.50;;
8337;SDS011;4206;48.634;9.516;2023-02-17T17:41:44;4.13;;;0.73;;
8337;SDS011;4206;48.634;9.516;2023-02-17T17:44:12;2.47;;;0.90;;
8337;SDS011;4206;48.634;9.516;2023-02-17T17:46:39;1.47;;;0.77;;
8337;SDS011;4206;48.634;9.516;2023-02-17T17:49:06;1.07;;;0.60;;
8337;SDS011;4206;48.634;9.516;2023-02-17T17:51:36;1.63;;;0.53;;
8337;SDS011;4206;48.634;9.516;2023-02-17T17:54:04;0.90;;;0.63;;
8337;SDS011;4206;48.634;9.516;2023-02-17T17:56:33;1.07;;;0.40;;
8337;SDS011;4206;48.634;9.516;2023-02-17T17:59:03;1.23;;;0.60;;
8337;SDS011;4206;48.634;9.516;2023-02-17T18:01:31;1.73;;;0.60;;
8337;SDS011;4206;48.634;9.516;2023-02-17T18:03:58;1.47;;;0.67;;
8337;SDS011;4206;48.634;9.516;2023-02-17T18:06:27;0.47;;;0.40;;
8337;SDS011;4206;48.634;9.516;2023-02-17T18:09:00;0.90;;;0.60;;
8337;SDS011;4206;48.634;9.516;2023-02-17T18:11:28;0.80;;;0.57;;
8337;SDS011;4206;48.634;9.516;2023-02-17T18:13:58;1.13;;;0.50;;
8337;SDS011;4206;48.634;9.516;2023-02-17T18:16:28;1.50;;;0.83;;
8337;SDS011;4206;48.634;9.516;2023-02-17T18:18:57;1.70;;;0.60;;
8337;SDS011;4206;48.634;9.516;2023-02-17T18:21:26;1.00;;;0.80;;
8337;SDS011;4206;48.634;9.516;2023-02-17T18:23:53;1.73;;;0.60;;
8337;SDS011;4206;48.634;9.516;2023-02-17T18:26:20;1.00;;;0.60;;
8337;SDS011;4206;48.634;9.516;2023-02-17T18:28:46;0.73;;;0.70;;
8337;SDS011;4206;48.634;9.516;2023-02-17T18:31:14;1.00;;;0.60;;
8337;SDS011;4206;48.634;9.516;2023-02-17T18:33:42;1.10;;;0.60;;
8337;SDS011;4206;48.634;9.516;2023-02-17T18:36:10;1.20;;;0.60;;
8337;SDS011;4206;48.634;9.516;2023-02-17T18:38:38;2.30;;;0.60;;
8337;SDS011;4206;48.634;9.516;2023-02-17T18:41:05;1.77;;;0.93;;
8337;SDS011;4206;48.634;9.516;2023-02-17T18:43:33;1.80;;;1.00;;
8337;SDS011;4206;48.634;9.516;2023-02-17T18:46:00;3.03;;;1.87;;
8337;SDS011;4206;48.634;9.516;2023-02-17T18:48:27;1.90;;;1.20;;
8337;SDS011;4206;48.634;9.516;2023-02-17T18:50:55;2.90;;;1.50;;
8337;SDS011;4206;48.634;9.516;2023-02-17T18:53:22;2.13;;;1.17;;
8337;SDS011;4206;48.634;9.516;2023-02-17T18:55:49;2.77;;;0.83;;
8337;SDS011;4206;48.634;9.516;2023-02-17T18:58:16;2.20;;;0.77;;
8337;SDS011;4206;48.634;9.516;2023-02-17T19:00:43;0.97;;;0.80;;
8337;SDS011;4206;48.634;9.516;2023-02-17T19:03:09;2.37;;;0.80;;
8337;SDS011;4206;48.634;9.516;2023-02-17T19:05:36;2.10;;;0.93;;
8337;SDS011;4206;48.634;9.516;2023-02-17T19:08:03;4.23;;;1.00;;
8337;SDS011;4206;48.634;9.516;2023-02-17T19:10:36;1.10;;;0.73;;
8337;SDS011;4206;48.634;9.516;2023-02-17T19:13:07;2.07;;;0.97;;
8337;SDS011;4206;48.634;9.516;2023-02-17T19:15:34;1.53;;;0.80;;
8337;SDS011;4206;48.634;9.516;2023-02-17T19:18:03;5.07;;;0.80;;
8337;SDS011;4206;48.634;9.516;2023-02-17T19:20:30;1.40;;;0.97;;
8337;SDS011;4206;48.634;9.516;2023-02-17T19:22:58;1.73;;;0.90;;
8337;SDS011;4206;48.634;9.516;2023-02-17T19:25:27;1.87;;;0.70;;
8337;SDS011;4206;48.634;9.516;2023-02-17T19:27:54;0.90;;;0.80;;
8337;SDS011;4206;48.634;9.516;2023-02-17T19:30:21;1.67;;;0.60;;
8337;SDS011;4206;48.634;9.516;2023-02-17T19:32:48;2.07;;;1.03;;
8337;SDS011;4206;48.634;9.516;2023-02-17T19:35:15;1.80;;;1.03;;
8337;SDS011;4206;48.634;9.516;2023-02-17T19:37:42;1.37;;;0.70;;
8337;SDS011;4206;48.634;9.516;2023-02-17T19:40:09;1.07;;;0.87;;
8337;SDS011;4206;48.634;9.516;2023-02-17T19:42:36;1.70;;;0.83;;
8337;SDS011;4206;48.634;9.516;2023-02-17T19:45:05;2.40;;;2.20;;
8337;SDS011;4206;48.634;9.516;2023-02-17T19:47:32;1.23;;;0.87;;
8337;SDS011;4206;48.634;9.516;2023-02-17T19:50:00;1.37;;;0.97;;
8337;SDS011;4206;48.634;9.516;2023-02-17T19:52:27;2.50;;;1.10;;
8337;SDS011;4206;48.634;9.516;2023-02-17T19:54:54;2.97;;;1.10;;
8337;SDS011;4206;48.634;9.516;2023-02-17T19:57:21;2.00;;;1.00;;
8337;SDS011;4206;48.634;9.516;2023-02-17T19:59:48;1.17;;;0.60;;
8337;SDS011;4206;48.634;9.516;2023-02-17T20:02:15;2.20;;;0.97;;
8337;SDS011;4206;48.634;9.516;2023-02-17T20:04:42;3.57;;;1.20;;
8337;SDS011;4206;48.634;9.516;2023-02-17T20:07:10;2.77;;;0.77;;
8337;SDS011;4206;48.634;9.516;2023-02-17T20:09:37;1.03;;;0.93;;
8337;SDS011;4206;48.634;9.516;2023-02-17T20:12:05;3.87;;;1.13;;
8337;SDS011;4206;48.634;9.516;2023-02-17T20:14:35;1.53;;;0.80;;
8337;SDS011;4206;48.634;9.516;2023-02-17T20:17:02;1.23;;;1.10;;
8337;SDS011;4206;48.634;9.516;2023-02-17T20:19:29;3.03;;;1.10;;
8337;SDS011;4206;48.634;9.516;2023-02-17T20:21:56;2.60;;;1.20;;
8337;SDS011;4206;48.634;9.516;2023-02-17T20:24:26;1.33;;;0.80;;
8337;SDS011;4206;48.634;9.516;2023-02-17T20:26:54;1.00;;;0.90;;
8337;SDS011;4206;48.634;9.516;2023-02-17T20:29:21;3.10;;;1.03;;
8337;SDS011;4206;48.634;9.516;2023-02-17T20:31:48;2.60;;;1.33;;
8337;SDS011;4206;48.634;9.516;2023-02-17T20:36:51;4.40;;;1.10;;
8337;SDS011;4206;48.634;9.516;2023-02-17T20:39:19;2.07;;;1.13;;
8337;SDS011;4206;48.634;9.516;2023-02-17T20:42:01;1.10;;;0.97;;
8337;SDS011;4206;48.634;9.516;2023-02-17T20:44:29;1.47;;;1.37;;
8337;SDS011;4206;48.634;9.516;2023-02-17T20:46:56;2.40;;;1.50;;
8337;SDS011;4206;48.634;9.516;2023-02-17T20:49:23;1.80;;;1.27;;
8337;SDS011;4206;48.634;9.516;2023-02-17T20:51:51;2.00;;;1.00;;
8337;SDS011;4206;48.634;9.516;2023-02-17T20:54:18;1.63;;;0.80;;
8337;SDS011;4206;48.634;9.516;2023-02-17T20:56:46;3.23;;;1.50;;
8337;SDS011;4206;48.634;9.516;2023-02-17T20:59:15;2.70;;;1.00;;
8337;SDS011;4206;48.634;9.516;2023-02-17T21:01:42;3.40;;;1.20;;
8337;SDS011;4206;48.634;9.516;2023-02-17T21:04:09;3.77;;;1.50;;
8337;SDS011;4206;48.634;9.516;2023-02-17T21:06:39;3.07;;;1.80;;
8337;SDS011;4206;48.634;9.516;2023-02-17T21:09:11;3.13;;;1.60;;
8337;SDS011;4206;48.634;9.516;2023-02-17T21:11:40;4.10;;;2.30;;
8337;SDS011;4206;48.634;9.516;2023-02-17T21:14:08;2.20;;;1.50;;
8337;SDS011;4206;48.634;9.516;2023-02-17T21:16:35;1.70;;;1.17;;
8337;SDS011;4206;48.634;9.516;2023-02-17T21:19:02;5.27;;;1.67;;
8337;SDS011;4206;48.634;9.516;2023-02-17T21:21:30;3.60;;;1.87;;
8337;SDS011;4206;48.634;9.516;2023-02-17T21:23:58;2.23;;;1.63;;
8337;SDS011;4206;48.634;9.516;2023-02-17T21:26:25;4.53;;;2.47;;
8337;SDS011;4206;48.634;9.516;2023-02-17T21:28:52;1.97;;;1.50;;
8337;SDS011;4206;48.634;9.516;2023-02-17T21:31:20;2.40;;;1.40;;
8337;SDS011;4206;48.634;9.516;2023-02-17T21:33:49;1.93;;;1.60;;
8337;SDS011;4206;48.634;9.516;2023-02-17T21:36:17;1.23;;;1.13;;
8337;SDS011;4206;48.634;9.516;2023-02-17T21:38:45;1.30;;;1.20;;
8337;SDS011;4206;48.634;9.516;2023-02-17T21:41:14;2.30;;;1.33;;
8337;SDS011;4206;48.634;9.516;2023-02-17T21:43:44;2.77;;;1.50;;
8337;SDS011;4206;48.634;9.516;2023-02-17T21:46:33;4.37;;;1.50;;
8337;SDS011;4206;48.634;9.516;2023-02-17T21:49:02;2.27;;;1.20;;
8337;SDS011;4206;48.634;9.516;2023-02-17T21:51:29;2.03;;;1.10;;
8337;SDS011;4206;48.634;9.516;2023-02-17T21:53:58;2.50;;;1.10;;
8337;SDS011;4206;48.634;9.516;2023-02-17T21:56:25;2.87;;;1.53;;
8337;SDS011;4206;48.634;9.516;2023-02-17T21:58:53;2.43;;;1.17;;
8337;SDS011;4206;48.634;9.516;2023-02-17T22:01:23;1.33;;;1.23;;
8337;SDS011;4206;48.634;9.516;2023-02-17T22:03:51;1.97;;;1.47;;
8337;SDS011;4206;48.634;9.516;2023-02-17T22:06:20;1.10;;;0.93;;
8337;SDS011;4206;48.634;9.516;2023-02-17T22:08:52;1.20;;;1.00;;
8337;SDS011;4206;48.634;9.516;2023-02-17T22:13:59;2.77;;;1.27;;
8337;SDS011;4206;48.634;9.516;2023-02-17T22:16:30;1.27;;;1.07;;
8337;SDS011;4206;48.634;9.516;2023-02-17T22:18:59;0.73;;;0.73;;
8337;SDS011;4206;48.634;9.516;2023-02-17T22:21:26;1.90;;;1.03;;
8337;SDS011;4206;48.634;9.516;2023-02-17T22:23:55;1.00;;;0.90;;
8337;SDS011;4206;48.634;9.516;2023-02-17T22:26:23;1.43;;;1.23;;
8337;SDS011;4206;48.634;9.516;2023-02-17T22:28:51;1.00;;;0.70;;
8337;SDS011;4206;48.634;9.516;2023-02-17T22:31:20;2.83;;;1.13;;
8337;SDS011;4206;48.634;9.516;2023-02-17T22:33:48;1.40;;;0.67;;
8337;SDS011;4206;48.634;9.516;2023-02-17T22:36:16;2.33;;;1.03;;
8337;SDS011;4206;48.634;9.516;2023-02-17T22:38:45;2.00;;;0.90;;
8337;SDS011;4206;48.634;9.516;2023-02-17T22:41:13;0.90;;;0.90;;
8337;SDS011;4206;48.634;9.516;2023-02-17T22:43:42;1.97;;;1.00;;
8337;SDS011;4206;48.634;9.516;2023-02-17T22:46:10;1.43;;;1.07;;
8337;SDS011;4206;48.634;9.516;2023-02-17T22:48:42;1.23;;;0.70;;
8337;SDS011;4206;48.634;9.516;2023-02-17T22:51:11;0.70;;;0.67;;